Flight Track Log - Related Links

Times and Time Zones

All times are in EST time to prevent confusion due to time zone crossing. See the SWA540 flight status page for this flight to view local times or setup timezone preferences in your user account.

Time Position Orientation Groundspeed Altitude Reporting Facility
EST Latitude Longitude Course Direction KTS MPH feet Rate Location/Type
Mon 11:09:35 PM 39.1833 -76.7333 270° West 173 199 3,500  Level Potomac TRACON
Mon 11:10:35 PM 39.1833 -76.8000 270° West 196 226 7,300 4,050 Climbing Potomac TRACON
Mon 11:11:35 PM 39.2000 -76.8667 288° West 234 269 11,600 3,290 Climbing Potomac TRACON
Mon 11:13:10 PM 39.1842 -77.0350 263° West 324 373 15,800 3,115 Climbing Washington Center
Mon 11:14:11 PM 39.1639 -77.1497 257° West 326 375 19,700 3,541 Climbing Washington Center
Mon 11:15:12 PM 39.1458 -77.2564 258° West 304 350 23,000 1,950 Climbing Washington Center
Mon 11:16:11 PM 39.1233 -77.3708 256° West 330 380 23,600 1,590 Climbing Washington Center
Mon 11:17:09 PM 39.1008 -77.4853 256° West 335 386 26,100 1,966 Climbing Washington Center
Mon 11:18:10 PM 39.0822 -77.5892 257° West 335 386 27,500 2,083 Climbing Washington Center
Mon 11:19:10 PM 39.0594 -77.7114 257° West 335 386 30,300 2,361 Climbing Washington Center
Mon 11:20:12 PM 39.0386 -77.8258 257° West 335 386 32,300 1,950 Climbing Washington Center
Mon 11:21:10 PM 39.0136 -77.9344 254° West 330 380 34,200 1,780 Climbing Washington Center
Mon 11:22:10 PM 38.9925 -78.0461 256° West 330 380 35,800 1,438 Climbing Washington Center
Mon 11:23:11 PM 38.9714 -78.1575 256° West 330 380 37,100 1,091 Climbing Washington Center
Mon 11:24:11 PM 38.9628 -78.2747 265° West 330 380 38,000 454 Climbing Washington Center
Mon 11:25:10 PM 38.9703 -78.4031 274° West 342 394 38,000  Level Washington Center
Mon 11:26:11 PM 38.9797 -78.5289 276° West 349 402 38,000  Level Washington Center
Mon 11:27:10 PM 38.9869 -78.6547 274° West 354 407 38,000  Level Washington Center
Mon 11:28:10 PM 38.9961 -78.7806 275° West 354 407 38,000  Level Washington Center
Mon 11:29:10 PM 39.0033 -78.9039 274° West 348 400 38,000  Level Washington Center
Mon 11:30:11 PM 39.0103 -79.0244 274° West 348 400 38,000  Level Washington Center
Mon 11:31:12 PM 39.0172 -79.1475 274° West 348 400 38,000  Level Washington Center
Mon 11:32:10 PM 39.0261 -79.2711 275° West 348 400 38,000  Level Washington Center
Mon 11:33:11 PM 39.0328 -79.3889 274° West 348 400 38,000  Level Washington Center
Mon 11:34:09 PM 39.0392 -79.5122 274° West 348 400 38,000  Level Washington Center
Mon 11:35:11 PM 39.0522 -79.6253 278° West 353 406 38,000  Level Washington Center
Mon 11:36:11 PM 39.0606 -79.7433 275° West 348 400 38,000  Level Washington Center
Mon 11:37:10 PM 39.0686 -79.8719 275° West 353 406 38,000  Level Washington Center
Mon 11:38:04 PM 39.0700 -80.0014 271° West 353 406 38,000  Level Indianapolis Center
Mon 11:39:05 PM 39.0767 -80.1119 274° West 355 409 38,000  Level Indianapolis Center
Mon 11:40:06 PM 39.0844 -80.2389 275° West 358 412 38,000  Level Indianapolis Center
Mon 11:41:07 PM 39.0914 -80.3667 274° West 358 412 38,000  Level Indianapolis Center
Mon 11:42:07 PM 39.0983 -80.4958 274° West 359 413 38,000  Level Indianapolis Center
Mon 11:43:08 PM 39.1047 -80.6242 274° West 360 414 38,000  Level Indianapolis Center
Mon 11:44:09 PM 39.1306 -80.7550 284° West 384 442 38,000  Level Indianapolis Center
Mon 11:45:10 PM 39.1981 -80.9053 300° West 405 466 38,000  Level Indianapolis Center
Mon 11:46:11 PM 39.2506 -81.0278 299° West 398 458 38,000  Level Indianapolis Center
Mon 11:47:12 PM 39.3061 -81.1506 300° West 397 457 38,000  Level Indianapolis Center
Mon 11:48:12 PM 39.3617 -81.2756 300° West 401 461 38,000  Level Indianapolis Center
Mon 11:49:13 PM 39.4158 -81.4000 299° West 399 459 38,000  Level Indianapolis Center
Mon 11:50:14 PM 39.4700 -81.5233 300° West 397 457 38,000  Level Indianapolis Center
Mon 11:51:15 PM 39.5239 -81.6467 300° West 395 455 38,000  Level Indianapolis Center
Mon 11:52:16 PM 39.5781 -81.7728 299° West 399 459 38,000  Level Indianapolis Center
Mon 11:53:16 PM 39.6317 -81.8964 299° West 396 456 38,000  Level Indianapolis Center
Mon 11:54:17 PM 39.6858 -82.0219 299° West 399 459 38,000  Level Indianapolis Center
Mon 11:55:18 PM 39.7378 -82.1450 299° West 396 456 38,000  Level Indianapolis Center
Mon 11:56:19 PM 39.7914 -82.2697 299° West 396 456 38,000  Level Indianapolis Center
Mon 11:57:20 PM 39.8450 -82.3953 299° West 398 458 38,000  Level Indianapolis Center
Mon 11:58:21 PM 39.9086 -82.5453 299° West 397 457 38,000  Level Indianapolis Center
Mon 11:59:21 PM 39.9614 -82.6708 299° West 397 457 38,000  Level Indianapolis Center
Tue 12:00:22 AM 40.0147 -82.7947 299° West 396 456 38,000  Level Indianapolis Center
Tue 12:01:23 AM 40.0667 -82.9208 298° West 397 457 38,000  Level Indianapolis Center
Tue 12:02:24 AM 40.1192 -83.0467 299° West 399 459 38,000  Level Indianapolis Center
Tue 12:03:25 AM 40.1711 -83.1728 298° West 399 459 38,000  Level Indianapolis Center
Tue 12:04:26 AM 40.2369 -83.2897 306° West 404 465 38,000  Level Indianapolis Center
Tue 12:05:26 AM 40.3042 -83.4072 307° West 406 467 38,000  Level Indianapolis Center
Tue 12:06:27 AM 40.3703 -83.5250 306° West 406 467 38,000  Level Indianapolis Center
Tue 12:07:28 AM 40.4364 -83.6419 307° West 403 464 38,000  Level Indianapolis Center
Tue 12:08:29 AM 40.5036 -83.7594 307° West 404 465 38,000  Level Indianapolis Center
Tue 12:09:30 AM 40.5831 -83.9014 306° West 403 464 38,000  Level Indianapolis Center
Tue 12:10:30 AM 40.6500 -84.0192 307° West 404 465 38,000  Level Indianapolis Center
Tue 12:11:31 AM 40.7150 -84.1392 306° West 404 465 38,000  Level Indianapolis Center
Tue 12:12:32 AM 40.7814 -84.2567 307° West 403 464 38,000  Level Indianapolis Center
Tue 12:13:33 AM 40.8464 -84.3742 306° West 399 459 38,000  Level Indianapolis Center
Tue 12:14:26 AM 40.9064 -84.4811 307° West 401 461 38,000  Level Chicago Center
Tue 12:15:27 AM 40.9703 -84.6000 305° West 398 458 38,000  Level Chicago Center
Tue 12:16:27 AM 41.0108 -84.7328 292° West 395 455 38,000 -298 Level Chicago Center
Tue 12:17:28 AM 41.0378 -84.8731 284° West 394 453 37,400 -738 Descending Chicago Center
Tue 12:18:29 AM 41.0644 -85.0136 284° West 393 452 36,500 -934 Descending Chicago Center
Tue 12:19:30 AM 41.0903 -85.1547 284° West 393 452 35,500 -942 Descending Chicago Center
Tue 12:20:30 AM 41.1161 -85.2939 284° West 391 450 34,600 -744 Descending Chicago Center
Tue 12:21:31 AM 41.1422 -85.4347 284° West 391 450 34,000 -347 Descending Chicago Center
Tue 12:22:31 AM 41.1675 -85.5739 284° West 389 448 33,900  Descending Chicago Center
Tue 12:23:32 AM 41.1925 -85.7136 283° West 386 444 34,000 50 Climbing Chicago Center
Tue 12:24:32 AM 41.2169 -85.8492 284° West 379 436 34,000  Level Chicago Center
Tue 12:25:33 AM 41.2408 -85.9881 283° West 382 440 34,000 -1,488 Level Chicago Center
Tue 12:26:33 AM 41.2653 -86.1256 283° West 382 440 31,000 -2,975 Descending Chicago Center
Tue 12:27:34 AM 41.2889 -86.2636 283° West 382 440 28,000 -2,826 Descending Chicago Center
Tue 12:28:34 AM 41.3125 -86.3958 283° West 371 427 25,300 -2,628 Descending Chicago Center
Tue 12:29:35 AM 41.3336 -86.5208 283° West 351 404 22,700 -2,479 Descending Chicago Center
Tue 12:30:35 AM 41.3542 -86.6361 283° West 328 377 20,300 -2,331 Descending Chicago Center
Tue 12:31:36 AM 41.3742 -86.7539 283° West 312 359 18,000 -2,281 Descending Chicago Center
Tue 12:32:36 AM 41.3914 -86.8594 282° West 295 339 15,700 -2,400 Descending Chicago Center
Tue 12:33:36 AM 41.4183 -86.9614 289° West 293 337 13,200 -2,430 Descending Chicago Center
Tue 12:34:37 AM 41.4547 -87.0553 297° West 288 331 10,800 -1,537 Descending Chicago Center
Tue 12:35:37 AM 41.4867 -87.1381 297° West 257 296 10,100 -793 Descending Chicago Center
Tue 12:36:38 AM 41.5156 -87.2078 299° West 223 257 9,200 -1,091 Descending Chicago Center
Tue 12:37:38 AM 41.5428 -87.2772 298° West 213 245 7,900 -1,240 Descending Chicago Center
Tue 12:38:39 AM 41.5706 -87.3478 298° West 214 246 6,700 -1,240 Descending Chicago Center
Tue 12:39:39 AM 41.5978 -87.4178 297° West 213 245 5,400 -942 Descending Chicago Center
Tue 12:40:40 AM 41.6239 -87.4839 298° West 209 241 4,800 -545 Descending Chicago Center
Tue 12:41:40 AM 41.6469 -87.5425 298° West 195 224 4,300 -550 Descending Chicago Center
Tue 12:42:40 AM 41.6697 -87.5969 299° West 182 209 3,700 -694 Descending Chicago Center
Tue 12:43:41 AM 41.7025 -87.6358 318° Northwest 170 196 2,900 -793 Descending Chicago Center
Tue 12:44:41 AM 41.7278 -87.6722 313° West 151 174 2,100 -694 Descending Chicago Center
Tue 12:45:42 AM 41.7519 -87.7081 312° West 126 145 1,500 -496 Descending Chicago Center
Tue 12:46:42 AM 41.7692 -87.7300 316° Northwest 116 133 1,100 -400 Descending Chicago Center
Tue 12:48:00 AM 41.7833 -87.7500 334° Northwest  Level FlightAware Approximate

Login

Don't have an account? Register now (free) for customized features, flight alerts, and more!